Aérodrome :
LOGIN :

S'inscrire | Disclaimer

   EN    FR    IT 

 










Légende :    VFR   VFR Marginal   IFR   IFR Intensif   IFR Très Intensif
Visi : 
Plafond : 
>= 8 km
>= 3000ft
5 à 8 km
1000 à 3000 ft
1500m à 5 km
500 à 1000 ft
800 à 1500m
200 à 500 ft
< 800m
< 200 ft
Symboles :   Orages  Brouillard  Fortes neiges  Fortes précipitations  Vent > 20 kt
SIGMETs :   Divers  Orages  Givrage  Turbulence  Onde Orograph.  Cendres Volcan.







- Altitude de l'aérodrome : 400 ft
- Code IATA : BNX


LQBK - Banja Luka

DERNIER METAR :
  • 190030Z VRB02KT CAVOK 17/15 Q1014 NOSIG

METARs EXPIRÉS :
  • 190000Z 16004KT CAVOK 18/15 Q1014 NOSIG
  • 182330Z VRB02KT CAVOK 18/15 Q1014 NOSIG
  • 182300Z 16004KT CAVOK 19/15 Q1015 NOSIG
  • 182230Z 18006KT CAVOK 19/15 Q1015 NOSIG
  • 182200Z 16007KT CAVOK 19/16 Q1015 NOSIG

TAF TAF LQBK
Valide du 19 à 00h jusqu'au 20 à 00h UTC


182300Z 1900/1924 16005KT CAVOK TX28/1913Z TN17/1903Z
PROB30
TEMPO 1903/1906 3000 BR BKN005
PROB30
TEMPO 1914/1921 VRB15KT 4000 TSRA FEW035CB BKN045
Pas de NOTAMs connus pour ce terrain.



MET'MAP, la Météo Aéronautique d'un coup d'oeil ! - Copyright ORBIFLY Décembre 2007 - Disclaimer

ORBIFLY MET'MAP TEAM :

Programmation & Développement : Alexandra Zaïnal
Conception & Développement : Baudouin d'Aumeries
Co-Programmation & Développement : Marc-Olivier Méhu
Soutien technique & logistique : Manuel Goepfert

Contact : metmap@orbifly.com




SOURCES & CREDITS :

   NOAA